sensor_id;sensor_type;location;lat;lon;timestamp;temperature;humidity
37086;DHT22;23001;45.952;12.676;2024-03-08T00:01:41;9.00;99.90
37086;DHT22;23001;45.952;12.676;2024-03-08T00:04:07;9.00;99.90
37086;DHT22;23001;45.952;12.676;2024-03-08T00:06:33;9.00;99.90
37086;DHT22;23001;45.952;12.676;2024-03-08T00:09:02;9.00;99.90
37086;DHT22;23001;45.952;12.676;2024-03-08T00:11:40;8.90;99.90
37086;DHT22;23001;45.952;12.676;2024-03-08T00:14:14;8.90;99.90
37086;DHT22;23001;45.952;12.676;2024-03-08T00:16:48;8.90;99.90
37086;DHT22;23001;45.952;12.676;2024-03-08T00:21:44;8.80;99.90
37086;DHT22;23001;45.952;12.676;2024-03-08T00:24:16;8.80;99.90
37086;DHT22;23001;45.952;12.676;2024-03-08T00:26:55;8.80;99.90
37086;DHT22;23001;45.952;12.676;2024-03-08T00:29:28;8.80;99.90
37086;DHT22;23001;45.952;12.676;2024-03-08T00:32:26;8.80;99.90
37086;DHT22;23001;45.952;12.676;2024-03-08T00:35:00;8.70;99.90
37086;DHT22;23001;45.952;12.676;2024-03-08T00:37:29;8.70;99.90
37086;DHT22;23001;45.952;12.676;2024-03-08T00:40:03;8.70;99.90
37086;DHT22;23001;45.952;12.676;2024-03-08T00:42:32;8.70;99.90
37086;DHT22;23001;45.952;12.676;2024-03-08T00:45:20;8.70;99.90
37086;DHT22;23001;45.952;12.676;2024-03-08T00:47:50;8.70;99.90
37086;DHT22;23001;45.952;12.676;2024-03-08T00:50:22;8.70;99.90
37086;DHT22;23001;45.952;12.676;2024-03-08T00:52:48;8.70;99.90
37086;DHT22;23001;45.952;12.676;2024-03-08T00:55:20;8.70;99.90
37086;DHT22;23001;45.952;12.676;2024-03-08T00:57:46;8.70;99.90
37086;DHT22;23001;45.952;12.676;2024-03-08T01:00:18;8.60;99.90
37086;DHT22;23001;45.952;12.676;2024-03-08T01:02:53;8.60;99.90
37086;DHT22;23001;45.952;12.676;2024-03-08T01:05:25;8.60;99.90
37086;DHT22;23001;45.952;12.676;2024-03-08T01:29:52;8.50;99.90
37086;DHT22;23001;45.952;12.676;2024-03-08T01:32:43;8.40;99.90
37086;DHT22;23001;45.952;12.676;2024-03-08T01:35:13;8.40;99.90
37086;DHT22;23001;45.952;12.676;2024-03-08T01:37:38;8.40;99.90
37086;DHT22;23001;45.952;12.676;2024-03-08T01:40:04;8.30;99.90
37086;DHT22;23001;45.952;12.676;2024-03-08T01:42:30;8.30;99.90
37086;DHT22;23001;45.952;12.676;2024-03-08T01:44:56;8.30;99.90
37086;DHT22;23001;45.952;12.676;2024-03-08T01:47:22;8.30;99.90
37086;DHT22;23001;45.952;12.676;2024-03-08T01:49:51;8.30;99.90
37086;DHT22;23001;45.952;12.676;2024-03-08T01:52:18;8.40;99.90
37086;DHT22;23001;45.952;12.676;2024-03-08T01:54:49;8.30;99.90
37086;DHT22;23001;45.952;12.676;2024-03-08T01:57:18;8.30;99.90
37086;DHT22;23001;45.952;12.676;2024-03-08T01:59:44;8.30;99.90
37086;DHT22;23001;45.952;12.676;2024-03-08T02:02:15;8.30;99.90
37086;DHT22;23001;45.952;12.676;2024-03-08T02:04:44;8.30;99.90
37086;DHT22;23001;45.952;12.676;2024-03-08T02:07:15;8.40;99.90
37086;DHT22;23001;45.952;12.676;2024-03-08T02:09:45;8.40;99.90
37086;DHT22;23001;45.952;12.676;2024-03-08T02:12:23;8.40;99.90
37086;DHT22;23001;45.952;12.676;2024-03-08T02:15:00;8.40;99.90
37086;DHT22;23001;45.952;12.676;2024-03-08T02:17:32;8.40;99.90
37086;DHT22;23001;45.952;12.676;2024-03-08T02:20:23;8.30;99.90
37086;DHT22;23001;45.952;12.676;2024-03-08T02:23:03;8.40;99.90
37086;DHT22;23001;45.952;12.676;2024-03-08T02:28:44;8.30;99.90
37086;DHT22;23001;45.952;12.676;2024-03-08T02:31:18;8.30;99.90
37086;DHT22;23001;45.952;12.676;2024-03-08T02:33:56;8.30;99.90
37086;DHT22;23001;45.952;12.676;2024-03-08T02:36:28;8.30;99.90
37086;DHT22;23001;45.952;12.676;2024-03-08T02:39:02;8.30;99.90
37086;DHT22;23001;45.952;12.676;2024-03-08T02:41:36;8.30;99.90
37086;DHT22;23001;45.952;12.676;2024-03-08T02:44:02;8.30;99.90
37086;DHT22;23001;45.952;12.676;2024-03-08T02:46:29;8.30;99.90
37086;DHT22;23001;45.952;12.676;2024-03-08T02:48:55;8.30;99.90
37086;DHT22;23001;45.952;12.676;2024-03-08T02:51:21;8.20;99.90
37086;DHT22;23001;45.952;12.676;2024-03-08T02:53:53;8.30;99.90
37086;DHT22;23001;45.952;12.676;2024-03-08T02:56:22;8.30;99.90
37086;DHT22;23001;45.952;12.676;2024-03-08T02:58:48;8.30;99.90
37086;DHT22;23001;45.952;12.676;2024-03-08T03:01:19;8.30;99.90
37086;DHT22;23001;45.952;12.676;2024-03-08T03:03:53;8.20;99.90
37086;DHT22;23001;45.952;12.676;2024-03-08T03:06:58;8.20;99.90
37086;DHT22;23001;45.952;12.676;2024-03-08T03:09:34;8.30;99.90
37086;DHT22;23001;45.952;12.676;2024-03-08T03:12:08;8.30;99.90
37086;DHT22;23001;45.952;12.676;2024-03-08T03:14:45;8.20;99.90
37086;DHT22;23001;45.952;12.676;2024-03-08T03:17:17;8.20;99.90
37086;DHT22;23001;45.952;12.676;2024-03-08T03:22:42;8.20;99.90
37086;DHT22;23001;45.952;12.676;2024-03-08T03:25:24;8.20;99.90
37086;DHT22;23001;45.952;12.676;2024-03-08T03:27:57;8.20;99.90
37086;DHT22;23001;45.952;12.676;2024-03-08T03:30:27;8.20;99.90
37086;DHT22;23001;45.952;12.676;2024-03-08T03:33:14;8.30;99.90
37086;DHT22;23001;45.952;12.676;2024-03-08T03:35:50;8.30;99.90
37086;DHT22;23001;45.952;12.676;2024-03-08T03:38:21;8.30;99.90
37086;DHT22;23001;45.952;12.676;2024-03-08T03:40:53;8.30;99.90
37086;DHT22;23001;45.952;12.676;2024-03-08T03:43:23;8.30;99.90
37086;DHT22;23001;45.952;12.676;2024-03-08T03:45:50;8.30;99.90
37086;DHT22;23001;45.952;12.676;2024-03-08T03:48:25;8.30;99.90
37086;DHT22;23001;45.952;12.676;2024-03-08T03:51:16;8.30;99.90
37086;DHT22;23001;45.952;12.676;2024-03-08T03:53:49;8.30;99.90
37086;DHT22;23001;45.952;12.676;2024-03-08T03:56:30;8.30;99.90
37086;DHT22;23001;45.952;12.676;2024-03-08T03:59:04;8.30;99.90
37086;DHT22;23001;45.952;12.676;2024-03-08T04:01:30;8.20;99.90
37086;DHT22;23001;45.952;12.676;2024-03-08T04:03:58;8.30;99.90
37086;DHT22;23001;45.952;12.676;2024-03-08T04:06:24;8.30;99.90
37086;DHT22;23001;45.952;12.676;2024-03-08T04:08:50;8.30;99.90
37086;DHT22;23001;45.952;12.676;2024-03-08T04:11:19;8.20;99.90
37086;DHT22;23001;45.952;12.676;2024-03-08T04:13:45;8.30;99.90
37086;DHT22;23001;45.952;12.676;2024-03-08T04:16:11;8.30;99.90
37086;DHT22;23001;45.952;12.676;2024-03-08T04:18:37;8.40;99.90
37086;DHT22;23001;45.952;12.676;2024-03-08T04:21:05;8.40;99.90
37086;DHT22;23001;45.952;12.676;2024-03-08T04:23:34;8.30;99.90
37086;DHT22;23001;45.952;12.676;2024-03-08T04:26:03;8.40;99.90
37086;DHT22;23001;45.952;12.676;2024-03-08T04:28:30;8.30;99.90
37086;DHT22;23001;45.952;12.676;2024-03-08T04:30:57;8.30;99.90
37086;DHT22;23001;45.952;12.676;2024-03-08T04:33:23;8.30;99.90
37086;DHT22;23001;45.952;12.676;2024-03-08T04:35:49;8.30;99.90
37086;DHT22;23001;45.952;12.676;2024-03-08T04:38:15;8.30;99.90
37086;DHT22;23001;45.952;12.676;2024-03-08T04:40:41;8.30;99.90
37086;DHT22;23001;45.952;12.676;2024-03-08T04:43:07;8.30;99.90
37086;DHT22;23001;45.952;12.676;2024-03-08T04:45:34;8.40;99.90
37086;DHT22;23001;45.952;12.676;2024-03-08T04:48:03;8.30;99.90
37086;DHT22;23001;45.952;12.676;2024-03-08T04:50:29;8.30;99.90
37086;DHT22;23001;45.952;12.676;2024-03-08T04:52:55;8.30;99.90
37086;DHT22;23001;45.952;12.676;2024-03-08T04:55:26;8.30;99.90
37086;DHT22;23001;45.952;12.676;2024-03-08T04:57:52;8.30;99.90
37086;DHT22;23001;45.952;12.676;2024-03-08T05:00:18;8.30;99.90
37086;DHT22;23001;45.952;12.676;2024-03-08T05:02:45;8.20;99.90
37086;DHT22;23001;45.952;12.676;2024-03-08T05:05:11;8.30;99.90
37086;DHT22;23001;45.952;12.676;2024-03-08T05:07:40;8.30;99.90
37086;DHT22;23001;45.952;12.676;2024-03-08T05:10:10;8.20;99.90
37086;DHT22;23001;45.952;12.676;2024-03-08T05:12:39;8.20;99.90
37086;DHT22;23001;45.952;12.676;2024-03-08T05:15:07;8.20;99.90
37086;DHT22;23001;45.952;12.676;2024-03-08T05:17:35;8.20;99.90
37086;DHT22;23001;45.952;12.676;2024-03-08T05:20:04;8.20;99.90
37086;DHT22;23001;45.952;12.676;2024-03-08T05:22:34;8.20;99.90
37086;DHT22;23001;45.952;12.676;2024-03-08T05:25:03;8.20;99.90
37086;DHT22;23001;45.952;12.676;2024-03-08T05:27:29;8.20;99.90
37086;DHT22;23001;45.952;12.676;2024-03-08T05:29:55;8.20;99.90
37086;DHT22;23001;45.952;12.676;2024-03-08T05:32:21;8.20;99.90
37086;DHT22;23001;45.952;12.676;2024-03-08T05:34:46;8.20;99.90
37086;DHT22;23001;45.952;12.676;2024-03-08T05:37:15;8.20;99.90
37086;DHT22;23001;45.952;12.676;2024-03-08T05:39:41;8.20;99.90
37086;DHT22;23001;45.952;12.676;2024-03-08T05:42:07;8.20;99.90
37086;DHT22;23001;45.952;12.676;2024-03-08T05:44:34;8.20;99.90
37086;DHT22;23001;45.952;12.676;2024-03-08T05:46:59;8.20;99.90
37086;DHT22;23001;45.952;12.676;2024-03-08T05:49:25;8.20;99.90
37086;DHT22;23001;45.952;12.676;2024-03-08T05:51:51;8.20;99.90
37086;DHT22;23001;45.952;12.676;2024-03-08T05:54:17;8.20;99.90
37086;DHT22;23001;45.952;12.676;2024-03-08T05:56:43;8.20;99.90
37086;DHT22;23001;45.952;12.676;2024-03-08T05:59:10;8.20;99.90
37086;DHT22;23001;45.952;12.676;2024-03-08T06:01:47;8.30;99.90
37086;DHT22;23001;45.952;12.676;2024-03-08T06:04:14;8.30;99.90
37086;DHT22;23001;45.952;12.676;2024-03-08T06:06:40;8.30;99.90
37086;DHT22;23001;45.952;12.676;2024-03-08T06:09:12;8.30;99.90
37086;DHT22;23001;45.952;12.676;2024-03-08T06:11:42;8.20;99.90
37086;DHT22;23001;45.952;12.676;2024-03-08T06:14:12;8.30;99.90
37086;DHT22;23001;45.952;12.676;2024-03-08T06:19:24;8.30;99.90
37086;DHT22;23001;45.952;12.676;2024-03-08T06:22:05;8.30;99.90
37086;DHT22;23001;45.952;12.676;2024-03-08T06:24:44;8.30;99.90
37086;DHT22;23001;45.952;12.676;2024-03-08T06:27:11;8.30;99.90
37086;DHT22;23001;45.952;12.676;2024-03-08T06:29:45;8.30;99.90
37086;DHT22;23001;45.952;12.676;2024-03-08T06:32:15;8.30;99.90
37086;DHT22;23001;45.952;12.676;2024-03-08T06:34:47;8.30;99.90
37086;DHT22;23001;45.952;12.676;2024-03-08T06:40:25;8.30;99.90
37086;DHT22;23001;45.952;12.676;2024-03-08T06:42:51;8.30;99.90
37086;DHT22;23001;45.952;12.676;2024-03-08T06:45:17;8.30;99.90
37086;DHT22;23001;45.952;12.676;2024-03-08T06:47:46;8.30;99.90
37086;DHT22;23001;45.952;12.676;2024-03-08T06:50:12;8.30;99.90
37086;DHT22;23001;45.952;12.676;2024-03-08T06:52:39;8.30;99.90
37086;DHT22;23001;45.952;12.676;2024-03-08T06:55:05;8.30;99.90
37086;DHT22;23001;45.952;12.676;2024-03-08T06:57:32;8.30;99.90
37086;DHT22;23001;45.952;12.676;2024-03-08T06:59:57;8.30;99.90
37086;DHT22;23001;45.952;12.676;2024-03-08T07:02:23;8.30;99.90
37086;DHT22;23001;45.952;12.676;2024-03-08T07:04:52;8.20;99.90
37086;DHT22;23001;45.952;12.676;2024-03-08T07:07:18;8.30;99.90
37086;DHT22;23001;45.952;12.676;2024-03-08T07:09:46;8.30;99.90
37086;DHT22;23001;45.952;12.676;2024-03-08T07:12:12;8.20;99.90
37086;DHT22;23001;45.952;12.676;2024-03-08T07:14:39;8.30;99.90
37086;DHT22;23001;45.952;12.676;2024-03-08T07:17:11;8.40;99.90
37086;DHT22;23001;45.952;12.676;2024-03-08T07:19:37;8.40;99.90
37086;DHT22;23001;45.952;12.676;2024-03-08T07:22:04;8.40;99.90
37086;DHT22;23001;45.952;12.676;2024-03-08T07:24:36;8.40;99.90
37086;DHT22;23001;45.952;12.676;2024-03-08T07:27:03;8.50;99.90
37086;DHT22;23001;45.952;12.676;2024-03-08T07:29:33;8.40;99.90
37086;DHT22;23001;45.952;12.676;2024-03-08T07:32:02;8.40;99.90
37086;DHT22;23001;45.952;12.676;2024-03-08T07:34:47;8.40;99.90
37086;DHT22;23001;45.952;12.676;2024-03-08T07:37:14;8.40;99.90
37086;DHT22;23001;45.952;12.676;2024-03-08T07:39:40;8.40;99.90
37086;DHT22;23001;45.952;12.676;2024-03-08T07:42:06;8.40;99.90
37086;DHT22;23001;45.952;12.676;2024-03-08T07:44:31;8.40;99.90
37086;DHT22;23001;45.952;12.676;2024-03-08T07:47:00;8.30;99.90
37086;DHT22;23001;45.952;12.676;2024-03-08T07:49:26;8.40;99.90
37086;DHT22;23001;45.952;12.676;2024-03-08T07:51:52;8.40;99.90
37086;DHT22;23001;45.952;12.676;2024-03-08T07:54:18;8.40;99.90
37086;DHT22;23001;45.952;12.676;2024-03-08T07:56:44;8.40;99.90
37086;DHT22;23001;45.952;12.676;2024-03-08T07:59:10;8.50;99.90
37086;DHT22;23001;45.952;12.676;2024-03-08T08:01:37;8.50;99.90
37086;DHT22;23001;45.952;12.676;2024-03-08T08:04:03;8.50;99.90
37086;DHT22;23001;45.952;12.676;2024-03-08T08:06:30;8.40;99.90
37086;DHT22;23001;45.952;12.676;2024-03-08T08:09:00;8.40;99.90
37086;DHT22;23001;45.952;12.676;2024-03-08T08:11:27;8.30;99.90
37086;DHT22;23001;45.952;12.676;2024-03-08T08:13:56;8.30;99.90
37086;DHT22;23001;45.952;12.676;2024-03-08T08:16:25;8.30;99.90
37086;DHT22;23001;45.952;12.676;2024-03-08T08:18:51;8.30;99.90
37086;DHT22;23001;45.952;12.676;2024-03-08T08:21:18;8.40;99.90
37086;DHT22;23001;45.952;12.676;2024-03-08T08:23:43;8.30;99.90
37086;DHT22;23001;45.952;12.676;2024-03-08T08:26:10;8.30;99.90
37086;DHT22;23001;45.952;12.676;2024-03-08T08:28:36;8.20;99.90
37086;DHT22;23001;45.952;12.676;2024-03-08T08:31:03;8.20;99.90
37086;DHT22;23001;45.952;12.676;2024-03-08T08:33:29;8.20;99.90
37086;DHT22;23001;45.952;12.676;2024-03-08T08:35:55;8.20;99.90
37086;DHT22;23001;45.952;12.676;2024-03-08T08:38:21;8.30;99.90
37086;DHT22;23001;45.952;12.676;2024-03-08T08:40:48;8.30;99.90
37086;DHT22;23001;45.952;12.676;2024-03-08T08:43:15;8.30;99.90
37086;DHT22;23001;45.952;12.676;2024-03-08T08:45:42;8.40;99.90
37086;DHT22;23001;45.952;12.676;2024-03-08T08:48:08;8.40;99.90
37086;DHT22;23001;45.952;12.676;2024-03-08T08:50:35;8.30;99.90
37086;DHT22;23001;45.952;12.676;2024-03-08T08:53:02;8.40;99.90
37086;DHT22;23001;45.952;12.676;2024-03-08T08:55:29;8.30;99.90
37086;DHT22;23001;45.952;12.676;2024-03-08T08:57:56;8.30;99.90
37086;DHT22;23001;45.952;12.676;2024-03-08T09:00:22;8.30;99.90
37086;DHT22;23001;45.952;12.676;2024-03-08T09:02:52;8.30;99.90
37086;DHT22;23001;45.952;12.676;2024-03-08T09:05:20;8.40;99.90
37086;DHT22;23001;45.952;12.676;2024-03-08T09:07:47;8.40;99.90
37086;DHT22;23001;45.952;12.676;2024-03-08T09:10:13;8.30;99.90
37086;DHT22;23001;45.952;12.676;2024-03-08T09:12:40;8.40;99.90
37086;DHT22;23001;45.952;12.676;2024-03-08T09:15:06;8.40;99.90
37086;DHT22;23001;45.952;12.676;2024-03-08T09:17:36;8.40;99.90
37086;DHT22;23001;45.952;12.676;2024-03-08T09:20:06;8.40;99.90
37086;DHT22;23001;45.952;12.676;2024-03-08T09:22:32;8.30;99.90
37086;DHT22;23001;45.952;12.676;2024-03-08T09:24:57;8.30;99.90
37086;DHT22;23001;45.952;12.676;2024-03-08T09:27:23;8.50;99.90
37086;DHT22;23001;45.952;12.676;2024-03-08T09:29:49;8.40;99.90
37086;DHT22;23001;45.952;12.676;2024-03-08T09:32:15;8.40;99.90
37086;DHT22;23001;45.952;12.676;2024-03-08T09:34:40;8.40;99.90
37086;DHT22;23001;45.952;12.676;2024-03-08T09:37:06;8.30;99.90
37086;DHT22;23001;45.952;12.676;2024-03-08T09:39:33;8.30;99.90
37086;DHT22;23001;45.952;12.676;2024-03-08T09:41:59;8.30;99.90
37086;DHT22;23001;45.952;12.676;2024-03-08T09:44:25;8.30;99.90
37086;DHT22;23001;45.952;12.676;2024-03-08T09:46:51;8.40;99.90
37086;DHT22;23001;45.952;12.676;2024-03-08T09:49:19;8.40;99.90
37086;DHT22;23001;45.952;12.676;2024-03-08T09:51:45;8.40;99.90
37086;DHT22;23001;45.952;12.676;2024-03-08T09:54:12;8.30;99.90
37086;DHT22;23001;45.952;12.676;2024-03-08T09:56:39;8.20;99.90
37086;DHT22;23001;45.952;12.676;2024-03-08T09:59:07;8.20;99.90
37086;DHT22;23001;45.952;12.676;2024-03-08T10:01:51;8.30;99.90
37086;DHT22;23001;45.952;12.676;2024-03-08T10:04:24;8.40;99.90
37086;DHT22;23001;45.952;12.676;2024-03-08T10:06:51;8.40;99.90
37086;DHT22;23001;45.952;12.676;2024-03-08T10:09:17;8.40;99.90
37086;DHT22;23001;45.952;12.676;2024-03-08T10:11:45;8.30;99.90
37086;DHT22;23001;45.952;12.676;2024-03-08T10:14:11;8.30;99.90
37086;DHT22;23001;45.952;12.676;2024-03-08T10:16:40;8.40;99.90
37086;DHT22;23001;45.952;12.676;2024-03-08T10:19:05;8.30;99.90
37086;DHT22;23001;45.952;12.676;2024-03-08T10:21:32;8.20;99.90
37086;DHT22;23001;45.952;12.676;2024-03-08T10:23:58;8.40;99.90
37086;DHT22;23001;45.952;12.676;2024-03-08T10:26:24;8.40;99.90
37086;DHT22;23001;45.952;12.676;2024-03-08T10:28:52;8.30;99.90
37086;DHT22;23001;45.952;12.676;2024-03-08T10:31:21;8.40;99.90
37086;DHT22;23001;45.952;12.676;2024-03-08T10:33:47;8.40;99.90
37086;DHT22;23001;45.952;12.676;2024-03-08T10:36:14;8.50;99.90
37086;DHT22;23001;45.952;12.676;2024-03-08T10:38:41;8.50;99.90
37086;DHT22;23001;45.952;12.676;2024-03-08T10:41:09;8.60;99.90
37086;DHT22;23001;45.952;12.676;2024-03-08T10:49:08;8.40;99.90
37086;DHT22;23001;45.952;12.676;2024-03-08T10:51:38;8.30;99.90
37086;DHT22;23001;45.952;12.676;2024-03-08T10:54:07;8.40;99.90
37086;DHT22;23001;45.952;12.676;2024-03-08T10:56:35;8.40;99.90
37086;DHT22;23001;45.952;12.676;2024-03-08T10:59:01;8.40;99.90
37086;DHT22;23001;45.952;12.676;2024-03-08T11:01:29;8.30;99.90
37086;DHT22;23001;45.952;12.676;2024-03-08T11:03:55;8.30;99.90
37086;DHT22;23001;45.952;12.676;2024-03-08T11:06:29;8.30;99.90
37086;DHT22;23001;45.952;12.676;2024-03-08T11:08:55;8.30;99.90
37086;DHT22;23001;45.952;12.676;2024-03-08T11:11:24;8.30;99.90
37086;DHT22;23001;45.952;12.676;2024-03-08T11:13:53;8.30;99.90
37086;DHT22;23001;45.952;12.676;2024-03-08T11:19:00;8.40;99.90
37086;DHT22;23001;45.952;12.676;2024-03-08T11:21:33;8.40;99.90
37086;DHT22;23001;45.952;12.676;2024-03-08T11:24:06;8.30;99.90
37086;DHT22;23001;45.952;12.676;2024-03-08T11:26:33;8.40;99.90
37086;DHT22;23001;45.952;12.676;2024-03-08T11:32:15;8.70;99.90
37086;DHT22;23001;45.952;12.676;2024-03-08T11:34:43;8.70;99.90
37086;DHT22;23001;45.952;12.676;2024-03-08T11:37:17;8.60;99.90
37086;DHT22;23001;45.952;12.676;2024-03-08T11:42:14;8.50;99.90
37086;DHT22;23001;45.952;12.676;2024-03-08T11:44:41;8.60;99.90
37086;DHT22;23001;45.952;12.676;2024-03-08T11:47:10;8.60;99.90
37086;DHT22;23001;45.952;12.676;2024-03-08T11:49:36;8.60;99.90
37086;DHT22;23001;45.952;12.676;2024-03-08T11:52:02;8.60;99.90
37086;DHT22;23001;45.952;12.676;2024-03-08T11:54:29;8.70;99.90
37086;DHT22;23001;45.952;12.676;2024-03-08T11:56:57;8.70;99.90
37086;DHT22;23001;45.952;12.676;2024-03-08T11:59:28;8.80;99.90
37086;DHT22;23001;45.952;12.676;2024-03-08T12:02:05;8.80;99.90
37086;DHT22;23001;45.952;12.676;2024-03-08T12:04:32;8.70;99.90
37086;DHT22;23001;45.952;12.676;2024-03-08T12:07:01;8.80;99.90
37086;DHT22;23001;45.952;12.676;2024-03-08T12:09:28;8.60;99.90
37086;DHT22;23001;45.952;12.676;2024-03-08T12:11:54;8.70;99.90
37086;DHT22;23001;45.952;12.676;2024-03-08T12:14:20;8.70;99.90
37086;DHT22;23001;45.952;12.676;2024-03-08T12:16:46;8.80;99.90
37086;DHT22;23001;45.952;12.676;2024-03-08T12:19:14;8.70;99.90
37086;DHT22;23001;45.952;12.676;2024-03-08T12:21:42;8.70;99.90
37086;DHT22;23001;45.952;12.676;2024-03-08T12:24:15;8.70;99.90
37086;DHT22;23001;45.952;12.676;2024-03-08T12:26:42;8.70;99.90
37086;DHT22;23001;45.952;12.676;2024-03-08T12:29:17;8.70;99.90
37086;DHT22;23001;45.952;12.676;2024-03-08T12:31:46;8.60;99.90
37086;DHT22;23001;45.952;12.676;2024-03-08T12:34:12;8.60;99.90
37086;DHT22;23001;45.952;12.676;2024-03-08T12:36:48;8.60;99.90
37086;DHT22;23001;45.952;12.676;2024-03-08T12:39:18;8.50;99.90
37086;DHT22;23001;45.952;12.676;2024-03-08T12:41:48;8.50;99.90
37086;DHT22;23001;45.952;12.676;2024-03-08T12:44:17;8.50;99.90
37086;DHT22;23001;45.952;12.676;2024-03-08T12:46:47;8.50;99.90
37086;DHT22;23001;45.952;12.676;2024-03-08T12:49:13;8.50;99.90
37086;DHT22;23001;45.952;12.676;2024-03-08T12:51:46;8.50;99.90
37086;DHT22;23001;45.952;12.676;2024-03-08T12:54:15;8.40;99.90
37086;DHT22;23001;45.952;12.676;2024-03-08T12:56:51;8.40;99.90
37086;DHT22;23001;45.952;12.676;2024-03-08T12:59:23;8.50;99.90
37086;DHT22;23001;45.952;12.676;2024-03-08T13:01:55;8.50;99.90
37086;DHT22;23001;45.952;12.676;2024-03-08T13:04:29;8.50;99.90
37086;DHT22;23001;45.952;12.676;2024-03-08T13:06:56;8.50;99.90
37086;DHT22;23001;45.952;12.676;2024-03-08T13:09:23;8.50;99.90
37086;DHT22;23001;45.952;12.676;2024-03-08T13:11:49;8.50;99.90
37086;DHT22;23001;45.952;12.676;2024-03-08T13:14:14;8.50;99.90
37086;DHT22;23001;45.952;12.676;2024-03-08T13:16:41;8.60;99.90
37086;DHT22;23001;45.952;12.676;2024-03-08T13:19:06;8.60;99.90
37086;DHT22;23001;45.952;12.676;2024-03-08T13:21:32;8.50;99.90
37086;DHT22;23001;45.952;12.676;2024-03-08T13:23:58;8.50;99.90
37086;DHT22;23001;45.952;12.676;2024-03-08T13:26:26;8.60;99.90
37086;DHT22;23001;45.952;12.676;2024-03-08T13:28:58;8.70;99.90
37086;DHT22;23001;45.952;12.676;2024-03-08T13:31:24;8.80;99.90
37086;DHT22;23001;45.952;12.676;2024-03-08T13:33:53;8.90;99.90
37086;DHT22;23001;45.952;12.676;2024-03-08T13:36:23;9.00;99.90
37086;DHT22;23001;45.952;12.676;2024-03-08T13:38:54;8.90;99.90
37086;DHT22;23001;45.952;12.676;2024-03-08T13:41:20;8.90;99.90
37086;DHT22;23001;45.952;12.676;2024-03-08T13:43:50;8.90;99.90
37086;DHT22;23001;45.952;12.676;2024-03-08T13:46:16;8.90;99.90
37086;DHT22;23001;45.952;12.676;2024-03-08T13:48:43;8.90;99.90
37086;DHT22;23001;45.952;12.676;2024-03-08T13:51:09;8.90;99.90
37086;DHT22;23001;45.952;12.676;2024-03-08T13:53:41;8.90;99.90
37086;DHT22;23001;45.952;12.676;2024-03-08T13:56:07;8.90;99.90
37086;DHT22;23001;45.952;12.676;2024-03-08T13:58:36;9.00;99.90
37086;DHT22;23001;45.952;12.676;2024-03-08T14:01:02;9.10;99.90
37086;DHT22;23001;45.952;12.676;2024-03-08T14:03:31;9.00;99.90
37086;DHT22;23001;45.952;12.676;2024-03-08T14:05:58;8.90;99.90
37086;DHT22;23001;45.952;12.676;2024-03-08T14:08:50;8.90;99.90
37086;DHT22;23001;45.952;12.676;2024-03-08T14:11:45;8.90;99.90
37086;DHT22;23001;45.952;12.676;2024-03-08T14:14:11;8.80;99.90
37086;DHT22;23001;45.952;12.676;2024-03-08T14:16:40;8.90;99.90
37086;DHT22;23001;45.952;12.676;2024-03-08T14:19:06;8.90;99.90
37086;DHT22;23001;45.952;12.676;2024-03-08T14:21:32;9.00;99.90
37086;DHT22;23001;45.952;12.676;2024-03-08T14:23:59;8.90;99.90
37086;DHT22;23001;45.952;12.676;2024-03-08T14:26:25;8.80;99.90
37086;DHT22;23001;45.952;12.676;2024-03-08T14:28:52;8.80;99.90
37086;DHT22;23001;45.952;12.676;2024-03-08T14:31:22;8.70;99.90
37086;DHT22;23001;45.952;12.676;2024-03-08T14:33:51;8.60;99.90
37086;DHT22;23001;45.952;12.676;2024-03-08T14:36:18;8.60;99.90
37086;DHT22;23001;45.952;12.676;2024-03-08T14:38:48;8.60;99.90
37086;DHT22;23001;45.952;12.676;2024-03-08T14:41:14;8.60;99.90
37086;DHT22;23001;45.952;12.676;2024-03-08T14:43:43;8.70;99.90
37086;DHT22;23001;45.952;12.676;2024-03-08T14:46:13;8.70;99.90
37086;DHT22;23001;45.952;12.676;2024-03-08T14:48:55;8.70;99.90
37086;DHT22;23001;45.952;12.676;2024-03-08T14:51:22;8.70;99.90
37086;DHT22;23001;45.952;12.676;2024-03-08T14:53:52;8.70;99.90
37086;DHT22;23001;45.952;12.676;2024-03-08T14:56:18;8.60;99.90
37086;DHT22;23001;45.952;12.676;2024-03-08T14:58:45;8.60;99.90
37086;DHT22;23001;45.952;12.676;2024-03-08T15:01:12;8.70;99.90
37086;DHT22;23001;45.952;12.676;2024-03-08T15:03:41;8.70;99.90
37086;DHT22;23001;45.952;12.676;2024-03-08T15:06:08;8.60;99.90
37086;DHT22;23001;45.952;12.676;2024-03-08T15:08:36;8.60;99.90
37086;DHT22;23001;45.952;12.676;2024-03-08T15:11:02;8.60;99.90
37086;DHT22;23001;45.952;12.676;2024-03-08T15:13:28;8.60;99.90
37086;DHT22;23001;45.952;12.676;2024-03-08T15:16:03;8.60;99.90
37086;DHT22;23001;45.952;12.676;2024-03-08T15:18:32;8.60;99.90
37086;DHT22;23001;45.952;12.676;2024-03-08T15:21:04;8.60;99.90
37086;DHT22;23001;45.952;12.676;2024-03-08T15:23:38;8.60;99.90
37086;DHT22;23001;45.952;12.676;2024-03-08T15:26:09;8.50;99.90
37086;DHT22;23001;45.952;12.676;2024-03-08T15:28:35;8.60;99.90
37086;DHT22;23001;45.952;12.676;2024-03-08T15:31:05;8.70;99.90
37086;DHT22;23001;45.952;12.676;2024-03-08T15:33:35;8.70;99.90
37086;DHT22;23001;45.952;12.676;2024-03-08T15:36:11;8.80;99.90
37086;DHT22;23001;45.952;12.676;2024-03-08T15:38:40;8.80;99.90
37086;DHT22;23001;45.952;12.676;2024-03-08T15:41:06;8.80;99.90
37086;DHT22;23001;45.952;12.676;2024-03-08T15:43:39;8.80;99.90
37086;DHT22;23001;45.952;12.676;2024-03-08T15:46:06;8.70;99.90
37086;DHT22;23001;45.952;12.676;2024-03-08T15:48:33;8.70;99.90
37086;DHT22;23001;45.952;12.676;2024-03-08T15:51:01;8.70;99.90
37086;DHT22;23001;45.952;12.676;2024-03-08T15:53:30;8.70;99.90
37086;DHT22;23001;45.952;12.676;2024-03-08T15:55:59;8.70;99.90
37086;DHT22;23001;45.952;12.676;2024-03-08T15:58:25;8.70;99.90
37086;DHT22;23001;45.952;12.676;2024-03-08T16:00:51;8.60;99.90
37086;DHT22;23001;45.952;12.676;2024-03-08T16:03:22;8.60;99.90
37086;DHT22;23001;45.952;12.676;2024-03-08T16:05:48;8.60;99.90
37086;DHT22;23001;45.952;12.676;2024-03-08T16:08:16;8.50;99.90
37086;DHT22;23001;45.952;12.676;2024-03-08T16:10:44;8.60;99.90
37086;DHT22;23001;45.952;12.676;2024-03-08T16:13:12;8.50;99.90
37086;DHT22;23001;45.952;12.676;2024-03-08T16:15:44;8.60;99.90
37086;DHT22;23001;45.952;12.676;2024-03-08T16:18:11;8.60;99.90
37086;DHT22;23001;45.952;12.676;2024-03-08T16:20:41;8.60;99.90
37086;DHT22;23001;45.952;12.676;2024-03-08T16:23:10;8.50;99.90
37086;DHT22;23001;45.952;12.676;2024-03-08T16:25:39;8.60;99.90
37086;DHT22;23001;45.952;12.676;2024-03-08T16:28:07;8.60;99.90
37086;DHT22;23001;45.952;12.676;2024-03-08T16:30:43;8.50;99.90
37086;DHT22;23001;45.952;12.676;2024-03-08T16:33:22;8.50;99.90